VTBD/DMK METAR and TAF weather

Enter ICAO airport designator
Station Type Date Time Source
VTBD METAR 2019/06/27 04:00 UTC NOAA

VTBD 270400Z 25010KT 210V280 9999 SCT020 32/23 Q1008 NOSIG


Station Type Date Time Source
VTBD Decoded METAR 2019/06/27 04:00 UTC NOAA

Don Muang, Thailand (VTBD) 13-55N 100-36E 12M
Jun 27, 2019 - 12:00 AM EDT / 2019.06.27 0400 UTC
Wind: from the WSW (250 degrees) at 12 MPH (10 KT) (direction variable):0
Visibility: greater than 7 mile(s):0
Sky conditions: partly cloudy
Temperature: 89 F (32 C)
Heat index: 96.8 F (36.0 C):1
Dew Point: 73 F (23 C)
Relative Humidity: 59%
Pressure (altimeter): 29.77 in. Hg (1008 hPa)
ob: VTBD 270400Z 25010KT 210V280 9999 SCT020 32/23 Q1008 NOSIG
cycle: 4

Station Type Date Time Source
VTBD TAF 2019/06/26 18:36 UTC NOAA

TAF TAF VTBD 261700Z 2618/2724 22008KT 9999 FEW020
TEMPO 2706/2712 23015KT 5000 TSRA FEW018CB SCT030 BKN100

Example: see airport list